createdAt,value
2019-03-10T00:01:30.670Z,7.30
2019-03-10T00:04:00.338Z,7.73
2019-03-10T00:06:30.801Z,9.20
2019-03-10T00:09:00.681Z,5.37
2019-03-10T00:11:30.288Z,5.87
2019-03-10T00:14:00.107Z,8.83
2019-03-10T00:16:29.483Z,6.33
2019-03-10T00:18:58.983Z,7.90
2019-03-10T00:21:28.228Z,6.00
2019-03-10T00:23:57.907Z,5.80
2019-03-10T00:26:27.531Z,7.30
2019-03-10T00:28:58.397Z,7.20
2019-03-10T00:31:28.294Z,5.30
2019-03-10T00:33:58.460Z,6.03
2019-03-10T00:36:28.431Z,6.40
2019-03-10T00:39:24.525Z,5.47
2019-03-10T00:42:58.944Z,7.60
2019-03-10T00:46:21.307Z,6.30
2019-03-10T00:49:30.972Z,7.20
2019-03-10T00:52:12.679Z,6.40
2019-03-10T00:54:42.799Z,6.27
2019-03-10T00:57:12.624Z,6.77
2019-03-10T00:59:42.553Z,9.00
2019-03-10T01:02:12.351Z,7.60
2019-03-10T01:04:41.699Z,6.17
2019-03-10T01:07:11.417Z,5.40
2019-03-10T01:09:40.948Z,6.30
2019-03-10T01:12:10.504Z,6.20
2019-03-10T01:14:40.225Z,5.97
2019-03-10T01:17:10.275Z,6.40
2019-03-10T01:19:40.798Z,8.00
2019-03-10T01:22:11.090Z,5.60
2019-03-10T01:24:40.492Z,5.97
2019-03-10T01:27:10.116Z,5.67
2019-03-10T01:29:39.646Z,6.00
2019-03-10T01:33:01.483Z,5.20
2019-03-10T01:35:35.185Z,6.43
2019-03-10T01:38:04.557Z,5.50
2019-03-10T01:40:33.996Z,6.23
2019-03-10T01:43:03.250Z,8.40
2019-03-10T01:45:35.597Z,6.07
2019-03-10T01:48:05.580Z,8.13
2019-03-10T01:50:35.122Z,7.00
2019-03-10T01:53:05.018Z,7.93
2019-03-10T01:55:34.649Z,5.90
2019-03-10T01:58:05.350Z,7.83
2019-03-10T02:00:35.117Z,6.10
2019-03-10T02:03:05.027Z,5.20
2019-03-10T02:05:34.366Z,5.33
2019-03-10T02:08:03.945Z,7.43
2019-03-10T02:10:34.422Z,6.40
2019-03-10T02:13:03.849Z,8.27
2019-03-10T02:15:33.481Z,5.47
2019-03-10T02:18:03.389Z,5.57
2019-03-10T02:20:32.832Z,6.93
2019-03-10T02:23:02.752Z,5.40
2019-03-10T02:25:32.217Z,5.60
2019-03-10T02:28:01.818Z,6.43
2019-03-10T02:30:31.637Z,4.60
2019-03-10T02:33:01.780Z,5.13
2019-03-10T02:35:31.270Z,4.70
2019-03-10T02:38:00.770Z,6.50
2019-03-10T02:40:30.389Z,5.70
2019-03-10T02:43:00.236Z,5.60
2019-03-10T02:45:30.139Z,5.03
2019-03-10T02:48:00.059Z,6.00
2019-03-10T02:50:30.274Z,6.43
2019-03-10T02:52:59.709Z,5.67
2019-03-10T02:55:29.163Z,6.17
2019-03-10T02:57:59.033Z,6.73
2019-03-10T03:00:28.333Z,5.60
2019-03-10T03:02:57.772Z,6.10
2019-03-10T03:05:27.112Z,5.37
2019-03-10T03:07:56.768Z,5.87
2019-03-10T03:10:26.201Z,4.60
2019-03-10T03:12:55.550Z,5.40
2019-03-10T03:15:25.619Z,4.40
2019-03-10T03:17:55.537Z,8.70
2019-03-10T03:20:25.900Z,5.07
2019-03-10T03:22:56.038Z,4.43
2019-03-10T03:25:25.599Z,4.47
2019-03-10T03:27:55.142Z,4.07
2019-03-10T03:30:24.621Z,5.47
2019-03-10T03:32:54.027Z,3.97
2019-03-10T03:35:50.281Z,4.10
2019-03-10T03:38:23.195Z,4.53
2019-03-10T03:41:01.707Z,4.00
2019-03-10T03:43:32.090Z,4.40
2019-03-10T03:46:01.672Z,4.03
2019-03-10T03:48:30.906Z,3.87
2019-03-10T03:51:00.103Z,3.90
2019-03-10T03:53:29.495Z,4.67
2019-03-10T03:55:58.916Z,4.20
2019-03-10T03:58:28.350Z,5.83
2019-03-10T04:01:03.122Z,4.33
2019-03-10T04:03:33.089Z,3.90
2019-03-10T04:06:02.605Z,4.00
2019-03-10T04:08:32.238Z,3.83
2019-03-10T04:11:01.664Z,3.87
2019-03-10T04:13:31.040Z,4.10
2019-03-10T04:16:00.338Z,4.20
2019-03-10T04:18:29.959Z,4.63
2019-03-10T04:21:00.572Z,3.90
2019-03-10T04:23:32.213Z,4.63
2019-03-10T04:26:02.130Z,6.27
2019-03-10T04:28:32.574Z,6.00
2019-03-10T04:31:02.287Z,4.70
2019-03-10T04:33:31.994Z,5.97
2019-03-10T04:36:01.569Z,3.90
2019-03-10T04:38:30.985Z,3.93
2019-03-10T04:41:04.100Z,5.77
2019-03-10T04:43:33.483Z,4.50
2019-03-10T04:46:03.375Z,3.90
2019-03-10T04:48:32.971Z,5.13
2019-03-10T04:51:02.231Z,4.10
2019-03-10T04:53:31.925Z,4.07
2019-03-10T04:56:23.174Z,4.80
2019-03-10T04:58:53.237Z,4.10
2019-03-10T05:01:23.169Z,4.30
2019-03-10T05:03:52.675Z,4.00
2019-03-10T05:06:22.484Z,4.23
2019-03-10T05:08:52.397Z,4.50
2019-03-10T05:11:22.328Z,3.97
2019-03-10T05:13:52.438Z,5.43
2019-03-10T05:16:22.849Z,4.90
2019-03-10T05:18:52.814Z,4.50
2019-03-10T05:21:22.884Z,4.00
2019-03-10T05:23:52.624Z,4.00
2019-03-10T05:26:25.248Z,4.53
2019-03-10T05:28:54.725Z,4.73
2019-03-10T05:31:24.437Z,4.30
2019-03-10T05:33:53.982Z,4.27
2019-03-10T05:36:23.305Z,4.40
2019-03-10T05:38:52.942Z,4.10
2019-03-10T05:41:22.880Z,4.20
2019-03-10T05:43:52.588Z,4.10
2019-03-10T05:46:22.095Z,4.67
2019-03-10T05:48:51.358Z,5.03
2019-03-10T05:51:21.157Z,4.40
2019-03-10T05:53:50.439Z,5.70
2019-03-10T05:56:19.797Z,6.60
2019-03-10T05:58:49.012Z,4.20
2019-03-10T06:01:18.326Z,5.07
2019-03-10T06:03:48.074Z,5.50
2019-03-10T06:06:17.563Z,9.07
2019-03-10T06:08:46.827Z,7.10
2019-03-10T06:11:16.632Z,4.53
2019-03-10T06:13:45.936Z,4.90
2019-03-10T06:16:15.557Z,5.40
2019-03-10T06:18:44.872Z,6.10
2019-03-10T06:21:14.506Z,7.53
2019-03-10T06:23:44.000Z,6.47
2019-03-10T06:26:13.493Z,4.80
2019-03-10T06:28:43.058Z,5.20
2019-03-10T06:31:12.417Z,5.00
2019-03-10T06:33:41.739Z,5.00
2019-03-10T06:36:11.539Z,6.13
2019-03-10T06:38:41.309Z,5.40
2019-03-10T06:41:10.999Z,6.70
2019-03-10T06:43:40.458Z,7.10
2019-03-10T06:46:10.276Z,5.30
2019-03-10T06:48:39.875Z,5.70
2019-03-10T06:51:09.876Z,6.03
2019-03-10T06:53:39.332Z,7.80
2019-03-10T06:56:08.876Z,7.10
2019-03-10T06:58:38.297Z,5.23
2019-03-10T07:01:07.670Z,7.53
2019-03-10T07:03:37.426Z,5.93
2019-03-10T07:06:06.882Z,5.03
2019-03-10T07:08:36.728Z,6.90
2019-03-10T07:11:06.061Z,7.83
2019-03-10T07:13:35.478Z,4.50
2019-03-10T07:16:05.678Z,4.30
2019-03-10T07:18:35.210Z,6.27
2019-03-10T07:21:04.672Z,4.60
2019-03-10T07:23:34.107Z,4.00
2019-03-10T07:26:07.265Z,4.83
2019-03-10T07:28:56.669Z,5.37
2019-03-10T07:31:30.662Z,6.10
2019-03-10T07:34:28.345Z,6.73
2019-03-10T07:37:28.140Z,4.30
2019-03-10T07:40:26.360Z,4.53
2019-03-10T07:43:16.720Z,5.60
2019-03-10T07:45:56.614Z,4.30
2019-03-10T07:48:45.493Z,4.13
2019-03-10T07:51:34.212Z,4.30
2019-03-10T07:54:28.620Z,3.90
2019-03-10T07:57:15.726Z,4.27
2019-03-10T08:00:03.053Z,4.57
2019-03-10T08:02:38.211Z,4.00
2019-03-10T08:05:30.081Z,5.90
2019-03-10T08:08:32.508Z,3.90
2019-03-10T08:11:29.914Z,3.90
2019-03-10T08:14:08.573Z,4.00
2019-03-10T08:17:15.262Z,3.90
2019-03-10T08:20:03.980Z,4.20
2019-03-10T08:22:52.929Z,5.03
2019-03-10T08:25:47.843Z,4.90
2019-03-10T08:28:43.201Z,4.10
2019-03-10T08:31:34.219Z,3.53
2019-03-10T08:34:56.718Z,4.63
2019-03-10T08:37:44.202Z,3.87
2019-03-10T08:40:22.141Z,4.93
2019-03-10T08:43:10.911Z,3.70
2019-03-10T08:45:59.467Z,3.77
2019-03-10T08:48:43.481Z,3.80
2019-03-10T08:51:29.856Z,4.57
2019-03-10T08:54:13.675Z,3.67
2019-03-10T08:57:05.585Z,3.80
2019-03-10T08:59:57.992Z,3.80
2019-03-10T09:02:58.911Z,3.70
2019-03-10T09:06:00.078Z,4.27
2019-03-10T09:08:47.664Z,3.77
2019-03-10T09:11:48.857Z,4.93
2019-03-10T09:14:43.439Z,4.30
2019-03-10T09:17:30.434Z,3.60
2019-03-10T09:20:09.841Z,4.93
2019-03-10T09:23:08.588Z,4.40
2019-03-10T09:26:09.807Z,3.70
2019-03-10T09:29:01.563Z,3.77
2019-03-10T09:31:54.105Z,3.60
2019-03-10T09:34:30.501Z,3.60
2019-03-10T09:37:15.073Z,3.97
2019-03-10T09:40:10.282Z,3.93
2019-03-10T09:42:59.800Z,3.93
2019-03-10T09:45:41.169Z,4.00
2019-03-10T09:48:35.964Z,3.80
2019-03-10T09:51:30.758Z,3.80
2019-03-10T09:54:37.613Z,5.43
2019-03-10T09:57:26.266Z,6.10
2019-03-10T10:00:13.998Z,4.97
2019-03-10T10:02:57.972Z,4.20
2019-03-10T10:05:56.247Z,4.10
2019-03-10T10:08:47.714Z,4.90
2019-03-10T10:11:37.090Z,10.00
2019-03-10T10:14:28.711Z,4.73
2019-03-10T10:17:48.851Z,5.80
2019-03-10T10:20:36.813Z,4.10
2019-03-10T10:23:35.807Z,4.07
2019-03-10T10:26:23.135Z,4.63
2019-03-10T10:29:14.987Z,4.40
2019-03-10T10:32:22.597Z,4.00
2019-03-10T10:35:17.717Z,3.80
2019-03-10T10:38:18.573Z,3.70
2019-03-10T10:41:25.095Z,3.87
2019-03-10T10:44:41.387Z,3.97
2019-03-10T10:47:27.063Z,4.33
2019-03-10T10:50:16.565Z,4.00
2019-03-10T10:53:05.635Z,4.10
2019-03-10T10:55:54.610Z,3.77
2019-03-10T11:02:10.544Z,4.00
2019-03-10T11:44:44.078Z,3.90
2019-03-10T11:47:58.454Z,3.80
2019-03-10T11:51:08.469Z,3.90
2019-03-10T11:54:05.796Z,3.67
2019-03-10T11:57:16.996Z,3.80
2019-03-10T12:00:38.270Z,3.80
2019-03-10T12:03:51.071Z,4.13
2019-03-10T12:07:43.816Z,4.20
2019-03-10T12:17:33.591Z,3.70
2019-03-10T12:20:31.059Z,3.70
2019-03-10T12:23:47.354Z,4.40
2019-03-10T12:26:23.097Z,4.00
2019-03-10T12:32:18.426Z,3.90
2019-03-10T12:35:04.054Z,3.70
2019-03-10T12:37:44.225Z,3.70
2019-03-10T12:40:19.057Z,3.63
2019-03-10T12:43:01.216Z,4.63
2019-03-10T12:45:36.849Z,4.03
2019-03-10T12:48:15.102Z,3.60
2019-03-10T12:50:46.453Z,4.30
2019-03-10T12:53:17.530Z,3.97
2019-03-10T12:55:49.795Z,4.30
2019-03-10T12:58:26.900Z,4.57
2019-03-10T13:01:05.673Z,6.23
2019-03-10T13:03:29.956Z,4.63
2019-03-10T13:06:15.276Z,3.70
2019-03-10T13:12:07.656Z,7.40
2019-03-10T13:14:38.993Z,4.20
2019-03-10T13:17:26.834Z,4.03
2019-03-10T13:19:57.258Z,4.40
2019-03-10T13:22:33.372Z,5.50
2019-03-10T13:25:03.941Z,5.23
2019-03-10T13:27:35.245Z,4.67
2019-03-10T13:30:05.644Z,5.07
2019-03-10T13:32:35.734Z,4.60
2019-03-10T13:35:05.899Z,4.90
2019-03-10T13:37:35.858Z,4.40
2019-03-10T13:40:07.240Z,4.40
2019-03-10T13:42:37.313Z,6.47
2019-03-10T13:45:07.951Z,5.53
2019-03-10T13:47:38.251Z,4.83
2019-03-10T13:50:13.362Z,4.70
2019-03-10T13:56:14.393Z,5.57
2019-03-10T13:59:16.542Z,5.63
2019-03-10T14:02:04.802Z,5.10
2019-03-10T14:04:34.888Z,6.10
2019-03-10T14:07:08.678Z,6.07
2019-03-10T14:09:42.390Z,4.80
2019-03-10T14:12:12.814Z,5.07
2019-03-10T14:14:43.307Z,5.90
2019-03-10T14:17:16.196Z,6.27
2019-03-10T14:19:49.705Z,7.60
2019-03-10T14:22:22.774Z,6.93
2019-03-10T14:24:53.167Z,6.60
2019-03-10T14:27:26.488Z,10.40
2019-03-10T14:29:59.916Z,10.53
2019-03-10T14:32:30.210Z,5.83
2019-03-10T14:35:08.810Z,5.13
2019-03-10T14:37:38.907Z,7.67
2019-03-10T14:40:09.542Z,6.47
2019-03-10T14:42:39.972Z,5.37
2019-03-10T14:45:11.987Z,8.10
2019-03-10T14:48:21.355Z,5.53
2019-03-10T14:54:43.400Z,6.20
2019-03-10T14:57:36.604Z,5.83
2019-03-10T15:00:11.054Z,7.33
2019-03-10T15:02:41.226Z,5.83
2019-03-10T15:05:21.712Z,7.73
2019-03-10T15:07:57.601Z,6.43
2019-03-10T15:10:37.833Z,7.67
2019-03-10T15:13:25.712Z,7.10
2019-03-10T15:19:00.584Z,6.60
2019-03-10T15:21:46.047Z,7.13
2019-03-10T15:24:16.978Z,9.50
2019-03-10T15:27:48.692Z,7.60
2019-03-10T15:35:02.117Z,7.77
2019-03-10T15:43:59.843Z,7.97
2019-03-10T15:50:37.745Z,7.47
2019-03-10T15:53:24.707Z,8.60
2019-03-10T15:56:07.982Z,10.30
2019-03-10T15:59:24.037Z,8.57
2019-03-10T16:06:13.719Z,9.10
2019-03-10T16:12:21.630Z,9.80
2019-03-10T16:15:05.217Z,11.30
2019-03-10T16:20:27.050Z,12.23
2019-03-10T16:23:29.213Z,11.20
2019-03-10T16:26:15.914Z,12.93
2019-03-10T16:29:00.578Z,9.60
2019-03-10T16:31:38.928Z,12.73
2019-03-10T16:41:53.155Z,13.23
2019-03-10T16:47:29.999Z,14.20
2019-03-10T17:01:17.178Z,13.10
2019-03-10T17:04:01.712Z,12.90
2019-03-10T17:07:14.058Z,18.53
2019-03-10T17:09:50.293Z,9.37
2019-03-10T17:12:21.281Z,11.67
2019-03-10T17:14:52.934Z,12.90
2019-03-10T17:17:22.931Z,9.70
2019-03-10T17:19:55.258Z,14.90
2019-03-10T17:22:25.792Z,11.40
2019-03-10T17:25:11.182Z,12.67
2019-03-10T17:27:39.986Z,10.10
2019-03-10T17:30:13.377Z,14.20
2019-03-10T17:32:43.274Z,9.80
2019-03-10T17:36:04.726Z,6.73
2019-03-10T17:39:39.336Z,10.63
2019-03-10T17:42:28.735Z,9.83
2019-03-10T17:44:58.683Z,11.43
2019-03-10T17:47:28.368Z,15.73
2019-03-10T17:49:57.921Z,10.60
2019-03-10T17:52:28.310Z,11.07
2019-03-10T17:54:58.120Z,16.67
2019-03-10T17:57:28.883Z,20.97
2019-03-10T17:59:58.548Z,9.30
2019-03-10T18:02:28.637Z,10.87
2019-03-10T18:05:02.320Z,12.63
2019-03-10T18:07:32.804Z,10.87
2019-03-10T18:10:02.669Z,9.10
2019-03-10T18:12:32.474Z,9.17
2019-03-10T18:15:08.848Z,11.50
2019-03-10T18:17:37.562Z,13.30
2019-03-10T18:20:10.132Z,9.90
2019-03-10T18:22:41.701Z,10.93
2019-03-10T18:25:11.867Z,11.73
2019-03-10T18:27:41.665Z,12.43
2019-03-10T18:30:14.630Z,10.50
2019-03-10T18:32:44.417Z,14.73
2019-03-10T18:35:14.160Z,13.17
2019-03-10T18:37:44.130Z,15.90
2019-03-10T18:40:18.313Z,12.30
2019-03-10T18:42:48.938Z,10.60
2019-03-10T18:45:30.405Z,14.20
2019-03-10T18:48:36.338Z,14.20
2019-03-10T18:51:06.914Z,10.73
2019-03-10T18:54:00.739Z,13.50
2019-03-10T18:56:31.023Z,9.57
2019-03-10T18:59:08.579Z,11.80
2019-03-10T19:01:38.920Z,8.53
2019-03-10T19:04:17.356Z,7.53
2019-03-10T19:07:01.590Z,8.27
2019-03-10T19:09:31.919Z,9.70
2019-03-10T19:12:08.598Z,6.10
2019-03-10T19:14:42.022Z,10.20
2019-03-10T19:17:15.267Z,8.10
2019-03-10T19:19:51.028Z,7.77
2019-03-10T19:22:22.811Z,9.83
2019-03-10T19:24:58.954Z,9.33
2019-03-10T19:28:29.868Z,14.07
2019-03-10T19:34:48.906Z,9.67
2019-03-10T19:37:24.676Z,9.70
2019-03-10T19:40:01.942Z,8.33
2019-03-10T19:42:32.883Z,11.40
2019-03-10T19:45:23.249Z,12.00
2019-03-10T19:50:49.812Z,9.07
2019-03-10T19:53:22.212Z,15.17
2019-03-10T19:55:52.295Z,15.07
2019-03-10T19:58:22.557Z,16.27
2019-03-10T20:00:52.863Z,11.23
2019-03-10T20:03:24.877Z,12.63
2019-03-10T20:05:54.784Z,14.77
2019-03-10T20:08:24.830Z,10.87
2019-03-10T20:10:55.014Z,15.50
2019-03-10T20:13:25.555Z,17.53
2019-03-10T20:15:55.726Z,18.90
2019-03-10T20:18:26.372Z,14.47
2019-03-10T20:20:56.316Z,10.70
2019-03-10T20:23:26.185Z,8.27
2019-03-10T20:25:55.855Z,11.03
2019-03-10T20:28:26.958Z,11.07
2019-03-10T20:31:02.608Z,12.37
2019-03-10T20:33:32.380Z,7.90
2019-03-10T20:36:01.960Z,9.07
2019-03-10T20:38:31.484Z,8.27
2019-03-10T20:41:01.085Z,8.33
2019-03-10T20:43:30.937Z,17.73
2019-03-10T20:46:00.652Z,10.70
2019-03-10T20:48:31.146Z,9.77
2019-03-10T20:51:00.972Z,13.40
2019-03-10T20:53:30.805Z,9.63
2019-03-10T20:56:00.962Z,11.73
2019-03-10T20:58:30.541Z,10.67
2019-03-10T21:01:00.429Z,9.80
2019-03-10T21:03:30.694Z,9.60
2019-03-10T21:06:00.550Z,10.57
2019-03-10T21:08:30.034Z,10.47
2019-03-10T21:10:59.722Z,9.40
2019-03-10T21:13:29.608Z,9.40
2019-03-10T21:15:59.641Z,10.50
2019-03-10T21:18:30.089Z,8.00
2019-03-10T21:21:00.093Z,11.30
2019-03-10T21:23:29.479Z,8.97
2019-03-10T21:25:59.320Z,11.57
2019-03-10T21:28:29.593Z,13.10
2019-03-10T21:30:59.549Z,9.87
2019-03-10T21:33:29.587Z,10.90
2019-03-10T21:35:59.498Z,13.00
2019-03-10T21:38:29.289Z,10.53
2019-03-10T21:40:59.310Z,8.40
2019-03-10T21:43:29.549Z,16.67
2019-03-10T21:45:59.653Z,10.90
2019-03-10T21:48:30.092Z,17.03
2019-03-10T21:50:59.907Z,9.63
2019-03-10T21:53:29.870Z,15.43
2019-03-10T21:55:59.422Z,9.40
2019-03-10T21:58:29.448Z,11.83
2019-03-10T22:00:59.356Z,8.93
2019-03-10T22:03:29.936Z,10.20
2019-03-10T22:05:59.874Z,12.17
2019-03-10T22:08:29.491Z,13.60
2019-03-10T22:10:59.592Z,13.03
2019-03-10T22:13:29.553Z,10.70
2019-03-10T22:15:59.316Z,9.87
2019-03-10T22:18:29.579Z,10.83
2019-03-10T22:20:59.007Z,10.40
2019-03-10T22:23:28.349Z,10.80
2019-03-10T22:25:58.003Z,10.70
2019-03-10T22:28:28.164Z,13.57
2019-03-10T22:30:57.685Z,12.17
2019-03-10T22:33:27.760Z,10.03
2019-03-10T22:35:58.748Z,10.80
2019-03-10T22:38:29.498Z,13.77
2019-03-10T22:40:59.593Z,15.40
2019-03-10T22:43:29.776Z,13.70
2019-03-10T22:46:00.201Z,13.70
2019-03-10T22:48:29.981Z,10.53
2019-03-10T22:51:00.289Z,10.50
2019-03-10T22:53:30.233Z,12.97
2019-03-10T22:55:59.625Z,20.43
2019-03-10T22:58:29.632Z,12.20
2019-03-10T23:01:02.395Z,10.60
2019-03-10T23:03:32.013Z,13.30
2019-03-10T23:06:01.744Z,12.53
2019-03-10T23:08:33.483Z,10.93
2019-03-10T23:11:03.122Z,10.97
2019-03-10T23:13:32.611Z,12.67
2019-03-10T23:16:02.584Z,12.83
2019-03-10T23:18:31.959Z,11.55
2019-03-10T23:21:01.312Z,10.43
2019-03-10T23:23:31.452Z,15.07
2019-03-10T23:26:01.619Z,10.47
2019-03-10T23:28:31.906Z,9.73
2019-03-10T23:31:02.975Z,13.90
2019-03-10T23:33:33.410Z,14.33
2019-03-10T23:36:03.035Z,8.70
2019-03-10T23:38:32.654Z,9.27
2019-03-10T23:41:02.806Z,11.60
2019-03-10T23:43:32.995Z,15.40
2019-03-10T23:46:02.775Z,12.40
2019-03-10T23:48:32.772Z,13.70
2019-03-10T23:51:02.650Z,8.13
2019-03-10T23:53:32.478Z,10.40
2019-03-10T23:56:03.093Z,14.90
2019-03-10T23:58:33.161Z,12.10
